Time;durP1;ratioP1;P1;durP2;ratioP2;P2;SDS_P1;SDS_P2;PMS_P1;PMS_P2;Temp;Humidity;BMP_temperature;BMP_pressure;BME280_temperature;BME280_humidity;BME280_pressure;Samples;Min_cycle;Max_cycle;Signal;HPM_P1;HPM_P2
2022/10/24 00:02:11;;;;;;;;;2.33;1.33;;;;;;;;5076167;27;47026;-74
2022/10/24 00:04:37;;;;;;;;;0.00;0.00;;;;;;;;5083638;27;45356;-75
2022/10/24 00:07:03;;;;;;;;;0.00;0.00;;;;;;;;5093595;27;45325;-74
2022/10/24 00:09:28;;;;;;;;;0.67;0.67;;;;;;;;5082539;27;45478;-75
2022/10/24 00:11:53;;;;;;;;;0.00;0.00;;;;;;;;5093262;27;46328;-74
2022/10/24 00:14:18;;;;;;;;;0.67;0.67;;;;;;;;5081592;27;45468;-74
2022/10/24 00:16:43;;;;;;;;;4.00;1.33;;;;;;;;5093049;27;45253;-74
2022/10/24 00:19:09;;;;;;;;;0.33;0.33;;;;;;;;5080378;27;45942;-74
2022/10/24 00:21:34;;;;;;;;;2.67;0.00;;;;;;;;5097454;27;46168;-74
2022/10/24 00:23:59;;;;;;;;;0.33;0.33;;;;;;;;5082170;27;45328;-74
2022/10/24 00:26:24;;;;;;;;;3.33;1.00;;;;;;;;5093244;27;45490;-75
2022/10/24 00:28:50;;;;;;;;;0.67;0.33;;;;;;;;5088334;27;45224;-74
2022/10/24 00:31:16;;;;;;;;;0.00;0.00;;;;;;;;5089884;27;45573;-75
2022/10/24 00:33:42;;;;;;;;;4.00;0.67;;;;;;;;5090859;27;45169;-76
2022/10/24 00:36:15;;;;;;;;;0.67;0.67;;;;;;;;5068404;27;45319;-75
2022/10/24 00:38:40;;;;;;;;;2.00;1.00;;;;;;;;5090070;27;45396;-75
2022/10/24 00:41:05;;;;;;;;;0.00;0.00;;;;;;;;5076075;27;46978;-75
2022/10/24 00:43:30;;;;;;;;;1.00;0.00;;;;;;;;5088704;27;45271;-75
2022/10/24 00:45:57;;;;;;;;;0.33;0.00;;;;;;;;5096567;27;45275;-76
2022/10/24 00:48:22;;;;;;;;;0.00;0.00;;;;;;;;5092042;27;45300;-76
2022/10/24 00:50:49;;;;;;;;;2.67;1.00;;;;;;;;5084707;27;45295;-76
2022/10/24 00:53:14;;;;;;;;;0.67;0.00;;;;;;;;5090380;27;45483;-76
2022/10/24 00:55:40;;;;;;;;;2.33;1.00;;;;;;;;5085772;27;45332;-76
2022/10/24 00:58:06;;;;;;;;;4.33;1.00;;;;;;;;5087684;27;45448;-76
2022/10/24 01:00:32;;;;;;;;;1.33;0.00;;;;;;;;5086490;27;46101;-76
2022/10/24 01:02:58;;;;;;;;;3.00;0.00;;;;;;;;5087532;27;45419;-75
2022/10/24 01:05:25;;;;;;;;;1.33;0.33;;;;;;;;5086304;27;45472;-76
2022/10/24 01:08:03;;;;;;;;;0.00;0.00;;;;;;;;5075904;27;45320;-75
2022/10/24 01:10:31;;;;;;;;;1.67;1.00;;;;;;;;5085811;27;45342;-75
2022/10/24 01:12:59;;;;;;;;;3.33;1.00;;;;;;;;5096937;27;45329;-76
2022/10/24 01:15:25;;;;;;;;;1.00;1.00;;;;;;;;5086933;27;45468;-76
2022/10/24 01:18:07;;;;;;;;;0.00;0.00;;;;;;;;5092581;27;45369;-76
2022/10/24 01:20:36;;;;;;;;;0.67;0.67;;;;;;;;5084618;27;45464;-76
2022/10/24 01:23:22;;;;;;;;;1.00;0.00;;;;;;;;5092176;27;45201;-75
2022/10/24 01:26:02;;;;;;;;;3.00;1.00;;;;;;;;5091330;27;45251;-75
2022/10/24 01:28:35;;;;;;;;;1.67;0.33;;;;;;;;5090265;27;45422;-76
2022/10/24 01:31:08;;;;;;;;;1.00;1.00;;;;;;;;5072937;27;47266;-75
2022/10/24 01:33:36;;;;;;;;;1.33;0.00;;;;;;;;5089547;27;45399;-76
2022/10/24 01:36:16;;;;;;;;;0.67;0.00;;;;;;;;5066643;27;45340;-76
2022/10/24 01:38:44;;;;;;;;;0.67;0.00;;;;;;;;5091061;27;45431;-76
2022/10/24 01:41:15;;;;;;;;;1.67;1.00;;;;;;;;5079995;27;47080;-75
2022/10/24 01:43:43;;;;;;;;;0.00;0.00;;;;;;;;5095559;27;45516;-74
2022/10/24 01:46:11;;;;;;;;;1.33;1.33;;;;;;;;5084954;27;45312;-74
2022/10/24 01:48:45;;;;;;;;;1.33;0.33;;;;;;;;5092487;27;45462;-75
2022/10/24 01:51:13;;;;;;;;;1.00;0.00;;;;;;;;5087759;27;45456;-75
2022/10/24 01:53:39;;;;;;;;;2.00;0.00;;;;;;;;5078498;27;45402;-75
2022/10/24 01:56:05;;;;;;;;;1.33;1.00;;;;;;;;5102853;27;45197;-75
2022/10/24 01:58:30;;;;;;;;;0.00;0.00;;;;;;;;5094741;27;45320;-75
2022/10/24 02:00:59;;;;;;;;;1.33;1.00;;;;;;;;5090102;27;45387;-75
2022/10/24 02:03:33;;;;;;;;;1.00;1.00;;;;;;;;5098600;27;45543;-75
2022/10/24 02:06:21;;;;;;;;;0.00;0.00;;;;;;;;5086428;27;45229;-76
2022/10/24 02:08:50;;;;;;;;;0.00;0.00;;;;;;;;5069485;27;45483;-75
2022/10/24 02:11:15;;;;;;;;;0.33;0.00;;;;;;;;5076475;27;48488;-75
2022/10/24 02:13:41;;;;;;;;;3.67;1.00;;;;;;;;5082561;27;45947;-75
2022/10/24 02:16:07;;;;;;;;;3.00;1.00;;;;;;;;5075414;27;45296;-75
2022/10/24 02:18:33;;;;;;;;;0.67;0.67;;;;;;;;5093187;27;45548;-75
2022/10/24 02:21:04;;;;;;;;;2.00;0.67;;;;;;;;5092201;27;46219;-75
2022/10/24 02:23:33;;;;;;;;;3.00;2.00;;;;;;;;5093749;27;45355;-75
2022/10/24 02:26:00;;;;;;;;;1.33;0.33;;;;;;;;5094737;27;45240;-75
2022/10/24 02:28:29;;;;;;;;;3.00;1.00;;;;;;;;5083347;27;45291;-76
2022/10/24 02:31:11;;;;;;;;;5.00;0.33;;;;;;;;5101338;27;45434;-75
2022/10/24 02:33:38;;;;;;;;;1.33;1.00;;;;;;;;5095635;27;45314;-75
2022/10/24 02:36:05;;;;;;;;;1.67;1.00;;;;;;;;5088489;27;45394;-75
2022/10/24 02:38:33;;;;;;;;;1.33;0.00;;;;;;;;5096871;27;45358;-75
2022/10/24 02:41:01;;;;;;;;;1.33;1.00;;;;;;;;5088000;27;45436;-76
2022/10/24 02:43:29;;;;;;;;;6.00;0.67;;;;;;;;5093852;27;45328;-75
2022/10/24 02:45:55;;;;;;;;;1.00;1.00;;;;;;;;5072067;28;45342;-75
2022/10/24 02:48:22;;;;;;;;;1.67;0.67;;;;;;;;5090922;27;45500;-75
2022/10/24 02:50:47;;;;;;;;;1.00;1.00;;;;;;;;5084995;27;45473;-76
2022/10/24 02:53:14;;;;;;;;;3.67;1.67;;;;;;;;5089968;27;45501;-76
2022/10/24 02:55:40;;;;;;;;;4.00;0.00;;;;;;;;5088753;27;45437;-74
2022/10/24 02:58:05;;;;;;;;;3.00;1.00;;;;;;;;5089898;27;45336;-74
2022/10/24 03:00:30;;;;;;;;;2.00;2.00;;;;;;;;5097024;27;45285;-75
2022/10/24 03:02:55;;;;;;;;;6.00;1.00;;;;;;;;5073929;28;45699;-75
2022/10/24 03:05:21;;;;;;;;;4.00;1.67;;;;;;;;5084568;27;45386;-74
2022/10/24 03:07:46;;;;;;;;;7.00;2.00;;;;;;;;5092361;27;45417;-74
2022/10/24 03:10:11;;;;;;;;;5.33;2.00;;;;;;;;5087432;27;45425;-73
2022/10/24 03:12:36;;;;;;;;;1.67;1.67;;;;;;;;5073713;27;45253;-74
2022/10/24 03:15:02;;;;;;;;;4.00;2.00;;;;;;;;5092246;27;45252;-74
2022/10/24 03:17:27;;;;;;;;;0.00;0.00;;;;;;;;5069825;28;45758;-74
2022/10/24 03:19:52;;;;;;;;;2.00;2.00;;;;;;;;5087379;27;45436;-76
2022/10/24 03:22:18;;;;;;;;;4.00;1.00;;;;;;;;5098376;27;45349;-75
2022/10/24 03:24:43;;;;;;;;;2.00;1.00;;;;;;;;5088765;27;45307;-76
2022/10/24 03:27:08;;;;;;;;;1.67;1.00;;;;;;;;5096611;27;45539;-75
2022/10/24 03:29:33;;;;;;;;;2.00;1.00;;;;;;;;5087356;27;46224;-76
2022/10/24 03:31:59;;;;;;;;;6.00;1.00;;;;;;;;5076500;28;45296;-75
2022/10/24 03:34:24;;;;;;;;;3.00;1.33;;;;;;;;5074094;27;45293;-76
2022/10/24 03:36:49;;;;;;;;;3.00;3.00;;;;;;;;5098050;27;45693;-76
2022/10/24 03:39:14;;;;;;;;;2.00;1.00;;;;;;;;5074387;27;46745;-75
2022/10/24 03:41:39;;;;;;;;;3.00;1.33;;;;;;;;5087178;27;45547;-75
2022/10/24 03:44:05;;;;;;;;;3.00;2.00;;;;;;;;5093049;27;45248;-75
2022/10/24 03:46:30;;;;;;;;;4.33;1.00;;;;;;;;5087523;27;45588;-76
2022/10/24 03:48:55;;;;;;;;;5.67;1.00;;;;;;;;5072496;27;46444;-75
2022/10/24 03:51:20;;;;;;;;;5.00;2.33;;;;;;;;5088010;27;45324;-75
2022/10/24 03:53:45;;;;;;;;;1.33;0.00;;;;;;;;5091782;27;45482;-75
2022/10/24 03:56:11;;;;;;;;;4.00;1.00;;;;;;;;5087180;27;45466;-75
2022/10/24 03:58:36;;;;;;;;;6.00;1.00;;;;;;;;5090409;27;45568;-75
2022/10/24 04:01:01;;;;;;;;;3.67;2.67;;;;;;;;5087804;27;45390;-75
2022/10/24 04:03:27;;;;;;;;;2.67;2.00;;;;;;;;5089454;27;45275;-76
2022/10/24 04:05:52;;;;;;;;;7.00;1.00;;;;;;;;5093904;27;45158;-75
2022/10/24 04:08:18;;;;;;;;;1.00;1.00;;;;;;;;5095739;27;45370;-75
2022/10/24 04:10:43;;;;;;;;;3.67;2.67;;;;;;;;5063957;28;45321;-75
2022/10/24 04:13:09;;;;;;;;;5.67;2.67;;;;;;;;5094027;27;45223;-75
2022/10/24 04:15:34;;;;;;;;;6.67;2.00;;;;;;;;5066089;27;45375;-75
2022/10/24 04:17:59;;;;;;;;;6.00;1.33;;;;;;;;5095042;27;45345;-76
2022/10/24 04:20:24;;;;;;;;;4.33;0.33;;;;;;;;5086474;27;45378;-75
2022/10/24 04:22:50;;;;;;;;;2.00;1.00;;;;;;;;5086715;27;45462;-76
2022/10/24 04:25:16;;;;;;;;;6.33;3.00;;;;;;;;5088846;27;45561;-75
2022/10/24 04:27:41;;;;;;;;;8.00;3.00;;;;;;;;5090752;27;45386;-75
2022/10/24 04:30:07;;;;;;;;;2.67;1.00;;;;;;;;5090586;27;45295;-75
2022/10/24 04:32:32;;;;;;;;;2.67;1.00;;;;;;;;5094295;27;45278;-76
2022/10/24 04:34:58;;;;;;;;;3.00;0.00;;;;;;;;5094737;27;45474;-76
2022/10/24 04:37:23;;;;;;;;;6.33;2.67;;;;;;;;5099477;27;45434;-78
2022/10/24 04:39:48;;;;;;;;;5.33;2.67;;;;;;;;5086861;27;45248;-78
2022/10/24 04:42:13;;;;;;;;;4.00;1.33;;;;;;;;5074596;27;45884;-77
2022/10/24 04:44:38;;;;;;;;;3.00;2.33;;;;;;;;5081949;27;45434;-77
2022/10/24 04:47:04;;;;;;;;;4.00;3.00;;;;;;;;5091688;27;45232;-77
2022/10/24 04:49:29;;;;;;;;;4.00;1.00;;;;;;;;5085484;27;45355;-77
2022/10/24 04:51:54;;;;;;;;;4.00;1.00;;;;;;;;5092495;27;45485;-78
2022/10/24 04:54:19;;;;;;;;;6.00;3.00;;;;;;;;5075077;27;45484;-76
2022/10/24 04:56:44;;;;;;;;;5.00;2.00;;;;;;;;5085012;27;45955;-76
2022/10/24 04:59:10;;;;;;;;;2.00;2.00;;;;;;;;5079732;27;45188;-78
2022/10/24 05:01:35;;;;;;;;;4.00;1.67;;;;;;;;5077865;27;45569;-78
2022/10/24 05:04:00;;;;;;;;;4.00;3.00;;;;;;;;5090609;27;45516;-76
2022/10/24 05:06:25;;;;;;;;;7.00;2.33;;;;;;;;5091541;27;46205;-76
2022/10/24 05:08:50;;;;;;;;;4.33;2.67;;;;;;;;5090811;27;45284;-76
2022/10/24 05:11:16;;;;;;;;;5.67;4.33;;;;;;;;5084124;27;45760;-76
2022/10/24 05:13:41;;;;;;;;;3.00;1.67;;;;;;;;5067931;28;46418;-76
2022/10/24 05:16:06;;;;;;;;;6.00;1.33;;;;;;;;5083721;27;45588;-75
2022/10/24 05:18:32;;;;;;;;;4.67;1.67;;;;;;;;5092741;27;45397;-76
2022/10/24 05:20:58;;;;;;;;;3.00;2.33;;;;;;;;5093721;27;45836;-75
2022/10/24 05:23:23;;;;;;;;;4.67;2.00;;;;;;;;5091161;27;45497;-76
2022/10/24 05:25:48;;;;;;;;;3.33;2.00;;;;;;;;5095023;27;45336;-75
2022/10/24 05:28:13;;;;;;;;;6.00;2.67;;;;;;;;5091996;27;45517;-74
2022/10/24 05:30:39;;;;;;;;;4.00;2.33;;;;;;;;5087394;27;45478;-75
2022/10/24 05:33:04;;;;;;;;;4.67;2.67;;;;;;;;5085520;27;45414;-75
2022/10/24 05:35:29;;;;;;;;;3.00;2.67;;;;;;;;5086562;27;45263;-74
2022/10/24 05:37:54;;;;;;;;;3.33;1.00;;;;;;;;5092355;27;45447;-74
2022/10/24 05:40:20;;;;;;;;;3.00;3.00;;;;;;;;5080253;27;45464;-74
2022/10/24 05:42:45;;;;;;;;;5.67;2.00;;;;;;;;5090066;27;45445;-75
2022/10/24 05:45:10;;;;;;;;;5.67;2.00;;;;;;;;5085066;27;45457;-75
2022/10/24 05:47:36;;;;;;;;;2.00;2.00;;;;;;;;5093039;27;45355;-79
2022/10/24 05:50:01;;;;;;;;;10.33;4.67;;;;;;;;5088837;27;45380;-80
2022/10/24 05:52:26;;;;;;;;;5.00;2.00;;;;;;;;5088977;27;45508;-80
2022/10/24 05:54:51;;;;;;;;;4.00;2.67;;;;;;;;5064343;28;46327;-80
2022/10/24 05:57:16;;;;;;;;;2.00;2.00;;;;;;;;5080259;27;45350;-80
2022/10/24 05:59:42;;;;;;;;;3.00;2.00;;;;;;;;5071846;28;45234;-80
2022/10/24 06:02:10;;;;;;;;;6.33;2.33;;;;;;;;5075226;28;45724;-80
2022/10/24 06:04:36;;;;;;;;;2.33;1.67;;;;;;;;5090993;27;46117;-80
2022/10/24 06:07:01;;;;;;;;;3.33;2.67;;;;;;;;5086361;27;45316;-80
2022/10/24 06:09:26;;;;;;;;;5.67;3.00;;;;;;;;5088856;27;45303;-80
2022/10/24 06:11:51;;;;;;;;;1.67;1.00;;;;;;;;5086558;27;45279;-80
2022/10/24 06:14:16;;;;;;;;;7.00;3.00;;;;;;;;5087393;27;45329;-80
2022/10/24 06:16:42;;;;;;;;;2.00;1.00;;;;;;;;5087059;27;45357;-80
2022/10/24 06:19:07;;;;;;;;;2.33;2.00;;;;;;;;5077958;27;45528;-80
2022/10/24 06:21:32;;;;;;;;;3.00;1.33;;;;;;;;5089852;27;45330;-80
2022/10/24 06:23:57;;;;;;;;;2.00;2.00;;;;;;;;5088323;27;46531;-80
2022/10/24 06:26:23;;;;;;;;;5.33;1.67;;;;;;;;5075055;27;45906;-80
2022/10/24 06:28:48;;;;;;;;;2.00;1.00;;;;;;;;5092144;27;45277;-79
2022/10/24 06:31:13;;;;;;;;;3.00;2.00;;;;;;;;5065904;27;46424;-80
2022/10/24 06:33:39;;;;;;;;;6.00;4.00;;;;;;;;5082681;27;47503;-80
2022/10/24 06:36:05;;;;;;;;;4.00;3.00;;;;;;;;5069805;27;45294;-81
2022/10/24 06:38:31;;;;;;;;;3.67;2.00;;;;;;;;5078968;27;45477;-80
2022/10/24 06:40:56;;;;;;;;;5.00;2.00;;;;;;;;5087476;27;45341;-80
2022/10/24 06:43:22;;;;;;;;;2.67;2.00;;;;;;;;5093925;27;45430;-80
2022/10/24 06:45:47;;;;;;;;;4.67;2.00;;;;;;;;5087429;27;45814;-79
2022/10/24 06:48:12;;;;;;;;;8.33;2.00;;;;;;;;5091223;27;45456;-79
2022/10/24 06:50:39;;;;;;;;;3.00;3.00;;;;;;;;5088459;27;45385;-79
2022/10/24 06:53:04;;;;;;;;;6.00;2.00;;;;;;;;5091000;27;46064;-80
2022/10/24 06:55:30;;;;;;;;;5.33;3.00;;;;;;;;5085148;27;45415;-79
2022/10/24 06:57:55;;;;;;;;;2.33;2.33;;;;;;;;5069193;27;45254;-79
2022/10/24 07:00:20;;;;;;;;;4.33;3.00;;;;;;;;5086344;27;45212;-80
2022/10/24 07:02:45;;;;;;;;;4.67;1.33;;;;;;;;5094081;27;45376;-80
2022/10/24 07:05:13;;;;;;;;;4.33;2.00;;;;;;;;5083895;27;45371;-80
2022/10/24 07:07:39;;;;;;;;;4.67;2.67;;;;;;;;5074623;27;45345;-79
2022/10/24 07:10:04;;;;;;;;;5.00;2.33;;;;;;;;5087954;27;45427;-79
2022/10/24 07:12:30;;;;;;;;;7.33;2.00;;;;;;;;5090178;27;45226;-80
2022/10/24 07:14:55;;;;;;;;;3.33;3.00;;;;;;;;5088009;27;45217;-79
2022/10/24 07:17:20;;;;;;;;;4.00;2.00;;;;;;;;5091328;27;45533;-79
2022/10/24 07:19:50;;;;;;;;;4.00;1.67;;;;;;;;5090748;27;45311;-77
2022/10/24 07:22:15;;;;;;;;;7.33;3.00;;;;;;;;5089436;27;45447;-78
2022/10/24 07:24:40;;;;;;;;;7.00;3.00;;;;;;;;5087668;27;45292;-79
2022/10/24 07:27:06;;;;;;;;;6.67;1.00;;;;;;;;5074150;27;45263;-79
2022/10/24 07:29:31;;;;;;;;;3.00;2.00;;;;;;;;5085807;27;45142;-79
2022/10/24 07:31:58;;;;;;;;;2.33;2.00;;;;;;;;5085118;27;47138;-79
2022/10/24 07:34:23;;;;;;;;;2.67;0.00;;;;;;;;5072057;27;45312;-79
2022/10/24 07:36:48;;;;;;;;;8.33;4.00;;;;;;;;5081463;27;45267;-80
2022/10/24 07:39:14;;;;;;;;;5.00;4.00;;;;;;;;5094443;27;45252;-80
2022/10/24 07:41:40;;;;;;;;;3.00;2.00;;;;;;;;5098495;27;45307;-79
2022/10/24 07:44:06;;;;;;;;;4.33;2.00;;;;;;;;5093766;27;45467;-79
2022/10/24 07:46:31;;;;;;;;;5.00;2.33;;;;;;;;5085033;27;45343;-79
2022/10/24 07:48:56;;;;;;;;;5.67;2.00;;;;;;;;5088324;27;45815;-79
2022/10/24 07:51:22;;;;;;;;;5.67;3.67;;;;;;;;5086856;27;45356;-80
2022/10/24 07:53:47;;;;;;;;;3.33;1.67;;;;;;;;5091673;27;45342;-79
2022/10/24 07:56:14;;;;;;;;;5.33;2.33;;;;;;;;5088531;27;45249;-79
2022/10/24 07:58:40;;;;;;;;;7.33;2.33;;;;;;;;5093886;27;45532;-80
2022/10/24 08:01:06;;;;;;;;;3.67;3.67;;;;;;;;5076824;27;45586;-79
2022/10/24 08:03:32;;;;;;;;;4.00;2.33;;;;;;;;5090326;27;45224;-80
2022/10/24 08:05:57;;;;;;;;;3.00;1.33;;;;;;;;5081918;27;45429;-79
2022/10/24 08:08:22;;;;;;;;;1.67;1.00;;;;;;;;5096368;27;45453;-79
2022/10/24 08:10:47;;;;;;;;;6.00;2.67;;;;;;;;5075822;28;47207;-79
2022/10/24 08:13:13;;;;;;;;;2.00;1.00;;;;;;;;5093830;27;45221;-80
2022/10/24 08:15:38;;;;;;;;;6.00;3.33;;;;;;;;5084106;27;45366;-79
2022/10/24 08:18:03;;;;;;;;;4.67;3.00;;;;;;;;5094270;27;45256;-79
2022/10/24 08:20:29;;;;;;;;;4.33;1.00;;;;;;;;5085574;27;46379;-80
2022/10/24 08:22:54;;;;;;;;;2.67;1.00;;;;;;;;5088847;27;45983;-79
2022/10/24 08:25:19;;;;;;;;;4.33;2.00;;;;;;;;5075791;27;45252;-79
2022/10/24 08:27:44;;;;;;;;;4.33;2.00;;;;;;;;5089948;27;45501;-80
2022/10/24 08:30:10;;;;;;;;;7.33;2.33;;;;;;;;5089953;27;47004;-79
2022/10/24 08:32:37;;;;;;;;;6.33;1.00;;;;;;;;5093237;27;45138;-80
2022/10/24 08:35:02;;;;;;;;;5.33;2.00;;;;;;;;5098429;27;45387;-80
2022/10/24 08:37:27;;;;;;;;;6.00;1.00;;;;;;;;5097428;27;45363;-79
2022/10/24 08:39:54;;;;;;;;;2.00;1.00;;;;;;;;5096151;27;45381;-79
2022/10/24 08:42:21;;;;;;;;;0.00;0.00;;;;;;;;5078572;27;45437;-79
2022/10/24 08:44:46;;;;;;;;;3.00;1.33;;;;;;;;5087834;27;45192;-79
2022/10/24 08:47:31;;;;;;;;;4.33;2.00;;;;;;;;5069241;27;46112;-79
2022/10/24 08:50:11;;;;;;;;;3.33;2.00;;;;;;;;5084789;27;45337;-80
2022/10/24 08:52:42;;;;;;;;;4.67;2.33;;;;;;;;5070169;28;45319;-79
2022/10/24 08:55:15;;;;;;;;;4.33;2.33;;;;;;;;5084273;27;45221;-79
2022/10/24 08:57:42;;;;;;;;;5.00;3.00;;;;;;;;5097685;27;45464;-79
2022/10/24 09:00:15;;;;;;;;;5.00;3.33;;;;;;;;5072203;28;46168;-79
2022/10/24 09:02:42;;;;;;;;;4.00;3.00;;;;;;;;5087604;27;45414;-79
2022/10/24 09:05:19;;;;;;;;;2.00;2.00;;;;;;;;5063015;27;45245;-79
2022/10/24 09:07:45;;;;;;;;;3.00;2.00;;;;;;;;5089573;27;45190;-80
2022/10/24 09:10:26;;;;;;;;;8.33;4.00;;;;;;;;5082684;27;48224;-79
2022/10/24 09:12:51;;;;;;;;;4.67;2.00;;;;;;;;5091030;27;45239;-79
2022/10/24 09:15:21;;;;;;;;;5.33;2.00;;;;;;;;5076265;27;45288;-80
2022/10/24 09:17:47;;;;;;;;;6.33;5.00;;;;;;;;5090961;27;45463;-80
2022/10/24 09:20:20;;;;;;;;;5.33;2.67;;;;;;;;5089169;27;45325;-80
2022/10/24 09:22:45;;;;;;;;;8.00;2.00;;;;;;;;5091344;27;45411;-79
2022/10/24 09:25:13;;;;;;;;;4.00;3.00;;;;;;;;5086089;27;45597;-80
2022/10/24 09:27:39;;;;;;;;;3.33;3.00;;;;;;;;5070731;27;45461;-80
2022/10/24 09:30:06;;;;;;;;;3.33;2.00;;;;;;;;5071901;27;47258;-80
2022/10/24 09:32:34;;;;;;;;;1.67;0.00;;;;;;;;5093640;27;45163;-80
2022/10/24 09:35:01;;;;;;;;;3.67;2.67;;;;;;;;5094483;27;45248;-80
2022/10/24 09:37:28;;;;;;;;;3.67;3.67;;;;;;;;5097013;27;45439;-80
2022/10/24 09:40:03;;;;;;;;;1.00;1.00;;;;;;;;5092477;27;45755;-80
2022/10/24 09:42:29;;;;;;;;;2.00;2.00;;;;;;;;5093213;27;45521;-80
2022/10/24 09:44:56;;;;;;;;;4.33;2.33;;;;;;;;5099649;27;45452;-80
2022/10/24 09:47:27;;;;;;;;;4.67;3.00;;;;;;;;5073213;27;45249;-80
2022/10/24 09:49:53;;;;;;;;;5.67;1.00;;;;;;;;5073307;27;46619;-80
2022/10/24 09:52:18;;;;;;;;;5.67;1.00;;;;;;;;5096089;27;45339;-80
2022/10/24 09:54:44;;;;;;;;;4.67;1.67;;;;;;;;5089145;27;45335;-80
2022/10/24 09:57:09;;;;;;;;;5.00;2.00;;;;;;;;5075459;27;47143;-80
2022/10/24 09:59:57;;;;;;;;;5.33;1.33;;;;;;;;5091523;27;45337;-79
2022/10/24 10:02:26;;;;;;;;;4.67;2.00;;;;;;;;5077661;27;45213;-80
2022/10/24 10:05:01;;;;;;;;;4.33;1.33;;;;;;;;5091296;27;45350;-79
2022/10/24 10:07:26;;;;;;;;;4.33;3.67;;;;;;;;5090805;27;45481;-78
2022/10/24 10:09:53;;;;;;;;;3.33;2.00;;;;;;;;5087734;27;46537;-80
2022/10/24 10:12:31;;;;;;;;;2.67;1.67;;;;;;;;5065552;27;45506;-81
2022/10/24 10:14:56;;;;;;;;;3.33;2.33;;;;;;;;5088862;27;45202;-81
2022/10/24 10:17:26;;;;;;;;;9.00;1.33;;;;;;;;5078278;27;45738;-81
2022/10/24 10:19:52;;;;;;;;;42.75;35.50;;;;;;;;5085487;27;45332;-81
2022/10/24 10:22:21;;;;;;;;;82.00;68.00;;;;;;;;5073590;27;45542;-81
2022/10/24 10:24:46;;;;;;;;;21.00;19.67;;;;;;;;5076938;27;45300;-81
2022/10/24 10:27:30;;;;;;;;;13.00;9.67;;;;;;;;5090874;27;45415;-78
2022/10/24 10:30:08;;;;;;;;;4.00;2.67;;;;;;;;5087140;27;45364;-80
2022/10/24 10:32:44;;;;;;;;;2.67;1.33;;;;;;;;5098685;27;45345;-80
2022/10/24 10:35:18;;;;;;;;;9.33;5.67;;;;;;;;5098612;27;45572;-80
2022/10/24 10:38:06;;;;;;;;;3.67;3.00;;;;;;;;5097283;27;45649;-81
2022/10/24 10:40:44;;;;;;;;;4.00;3.00;;;;;;;;5053345;28;45364;-81
2022/10/24 10:43:10;;;;;;;;;8.00;8.00;;;;;;;;5080058;27;45305;-81
2022/10/24 10:45:38;;;;;;;;;4.00;1.67;;;;;;;;5088994;27;45512;-80
2022/10/24 10:48:09;;;;;;;;;4.00;2.67;;;;;;;;5074367;27;45790;-81
2022/10/24 10:50:41;;;;;;;;;5.33;3.33;;;;;;;;5083286;27;46406;-81
2022/10/24 10:53:25;;;;;;;;;3.33;0.67;;;;;;;;5092064;27;45442;-81
2022/10/24 10:55:59;;;;;;;;;5.33;3.00;;;;;;;;5086571;27;45486;-81
2022/10/24 10:58:24;;;;;;;;;2.00;1.33;;;;;;;;5088007;27;45834;-80
2022/10/24 11:00:53;;;;;;;;;3.00;2.00;;;;;;;;5088236;27;45585;-81
2022/10/24 11:03:56;;;;;;;;;2.00;2.00;;;;;;;;5087489;27;46109;-80
2022/10/24 11:06:22;;;;;;;;;5.67;2.00;;;;;;;;5046184;28;45383;-81
2022/10/24 11:08:47;;;;;;;;;6.00;1.67;;;;;;;;5021611;28;45486;-80
2022/10/24 11:11:21;;;;;;;;;3.33;1.00;;;;;;;;5051349;27;46714;-80
2022/10/24 11:13:49;;;;;;;;;2.00;2.00;;;;;;;;5072483;27;45331;-80
2022/10/24 11:16:18;;;;;;;;;1.67;1.00;;;;;;;;5089926;27;45360;-80
2022/10/24 11:18:45;;;;;;;;;4.33;1.00;;;;;;;;5091539;27;45391;-79
2022/10/24 11:21:12;;;;;;;;;1.67;1.67;;;;;;;;5086844;27;45373;-79
2022/10/24 11:23:43;;;;;;;;;3.33;2.00;;;;;;;;5076777;27;45487;-79
2022/10/24 11:26:15;;;;;;;;;5.33;1.00;;;;;;;;5090375;27;45236;-79
2022/10/24 11:28:49;;;;;;;;;2.67;1.00;;;;;;;;5090871;27;45469;-79
2022/10/24 11:31:22;;;;;;;;;1.00;1.00;;;;;;;;5083279;27;46031;-79
2022/10/24 11:33:53;;;;;;;;;5.33;0.67;;;;;;;;5074604;27;45498;-79
2022/10/24 11:36:24;;;;;;;;;2.67;1.33;;;;;;;;5096187;27;45295;-79
2022/10/24 11:39:01;;;;;;;;;3.00;1.33;;;;;;;;5092496;27;45639;-79
2022/10/24 11:41:33;;;;;;;;;2.00;1.33;;;;;;;;5081781;27;47906;-79
2022/10/24 11:44:01;;;;;;;;;5.00;1.33;;;;;;;;5092101;27;45480;-79
2022/10/24 11:46:40;;;;;;;;;2.00;2.00;;;;;;;;5083689;27;45507;-79
2022/10/24 11:49:11;;;;;;;;;3.33;1.00;;;;;;;;5074979;27;45344;-80
2022/10/24 11:51:46;;;;;;;;;5.00;2.33;;;;;;;;5077945;27;48182;-79
2022/10/24 11:54:14;;;;;;;;;4.00;3.00;;;;;;;;5093434;27;45453;-79
2022/10/24 11:56:42;;;;;;;;;1.67;1.00;;;;;;;;5090209;27;45228;-79
2022/10/24 11:59:14;;;;;;;;;0.00;0.00;;;;;;;;5083962;27;45440;-80
2022/10/24 12:01:58;;;;;;;;;2.33;1.33;;;;;;;;5092113;27;45243;-79
2022/10/24 12:04:35;;;;;;;;;3.67;1.67;;;;;;;;5083005;27;45265;-79
2022/10/24 12:07:03;;;;;;;;;3.00;1.00;;;;;;;;5099529;27;45231;-79
2022/10/24 12:09:28;;;;;;;;;0.67;0.67;;;;;;;;5090809;27;45348;-80
2022/10/24 12:12:03;;;;;;;;;3.67;1.67;;;;;;;;5093198;27;46337;-79
2022/10/24 12:14:45;;;;;;;;;2.67;1.67;;;;;;;;5080041;27;45412;-80
2022/10/24 12:17:27;;;;;;;;;3.33;2.33;;;;;;;;5085617;27;45217;-79
2022/10/24 12:19:52;;;;;;;;;4.00;2.67;;;;;;;;5087234;27;45473;-79
2022/10/24 12:22:24;;;;;;;;;3.33;3.33;;;;;;;;5089675;27;45399;-79
2022/10/24 12:25:00;;;;;;;;;6.00;2.67;;;;;;;;5085597;27;45352;-79
2022/10/24 12:27:29;;;;;;;;;3.67;2.33;;;;;;;;5092282;27;45447;-79
2022/10/24 12:30:03;;;;;;;;;3.00;1.33;;;;;;;;5086915;27;45327;-78
2022/10/24 12:32:39;;;;;;;;;3.33;2.67;;;;;;;;5076029;27;46833;-79
2022/10/24 12:35:24;;;;;;;;;5.33;2.67;;;;;;;;5092648;27;45372;-79
2022/10/24 12:37:49;;;;;;;;;1.33;0.67;;;;;;;;5095811;27;45658;-81
2022/10/24 12:40:33;;;;;;;;;3.00;0.33;;;;;;;;5094052;27;45325;-79
2022/10/24 12:42:58;;;;;;;;;3.33;1.67;;;;;;;;5092757;27;45379;-79
2022/10/24 12:45:30;;;;;;;;;3.67;2.00;;;;;;;;5097083;27;45276;-79
2022/10/24 12:47:56;;;;;;;;;3.67;1.67;;;;;;;;5093508;27;45473;-79
2022/10/24 12:50:21;;;;;;;;;1.67;1.67;;;;;;;;5074338;27;45717;-79
2022/10/24 12:52:46;;;;;;;;;2.33;1.67;;;;;;;;5092788;27;45478;-79
2022/10/24 12:55:28;;;;;;;;;5.33;1.67;;;;;;;;5086674;27;45338;-79
2022/10/24 12:57:54;;;;;;;;;2.67;1.67;;;;;;;;5066375;28;45414;-79
2022/10/24 13:00:24;;;;;;;;;3.33;1.33;;;;;;;;5071413;27;46357;-79
2022/10/24 13:02:49;;;;;;;;;2.67;2.00;;;;;;;;5092877;27;45662;-79
2022/10/24 13:05:27;;;;;;;;;1.00;1.00;;;;;;;;5083123;27;45314;-79
2022/10/24 13:08:03;;;;;;;;;4.00;2.00;;;;;;;;5092134;27;45374;-79
2022/10/24 13:10:34;;;;;;;;;2.33;1.67;;;;;;;;5086990;27;45449;-79
2022/10/24 13:13:02;;;;;;;;;1.67;0.67;;;;;;;;5091752;27;46396;-79
2022/10/24 13:15:45;;;;;;;;;0.67;0.67;;;;;;;;5070242;27;45294;-79
2022/10/24 13:18:13;;;;;;;;;1.67;1.67;;;;;;;;5097894;27;45225;-79
2022/10/24 13:20:41;;;;;;;;;1.67;1.00;;;;;;;;5078373;27;46127;-79
2022/10/24 13:23:13;;;;;;;;;2.00;1.00;;;;;;;;5092023;27;45924;-80
2022/10/24 13:25:39;;;;;;;;;3.33;2.00;;;;;;;;5079558;27;45266;-80
2022/10/24 13:28:21;;;;;;;;;0.67;0.67;;;;;;;;5093201;27;45475;-80
2022/10/24 13:30:47;;;;;;;;;4.00;1.00;;;;;;;;5078748;27;45302;-80
2022/10/24 13:33:38;;;;;;;;;4.00;1.33;;;;;;;;5091875;27;45605;-79
2022/10/24 13:36:28;;;;;;;;;1.67;0.67;;;;;;;;5084173;27;45327;-79
2022/10/24 13:38:53;;;;;;;;;5.33;1.67;;;;;;;;5091656;27;45402;-80
2022/10/24 13:41:22;;;;;;;;;2.00;0.33;;;;;;;;5085129;27;45542;-79
2022/10/24 13:43:50;;;;;;;;;0.67;0.67;;;;;;;;5061500;28;45350;-79
2022/10/24 13:46:22;;;;;;;;;3.00;0.67;;;;;;;;5079735;27;45357;-79
2022/10/24 13:48:48;;;;;;;;;1.33;0.33;;;;;;;;5079094;27;45236;-80
2022/10/24 13:51:18;;;;;;;;;0.67;0.67;;;;;;;;5064787;27;45531;-79
2022/10/24 13:53:48;;;;;;;;;0.67;0.67;;;;;;;;5083488;27;47971;-79
2022/10/24 13:56:14;;;;;;;;;0.33;0.33;;;;;;;;5097030;27;45666;-79
2022/10/24 13:58:40;;;;;;;;;2.67;0.67;;;;;;;;5096212;27;45570;-79
2022/10/24 14:01:10;;;;;;;;;0.00;0.00;;;;;;;;5081078;27;45425;-80
2022/10/24 14:03:35;;;;;;;;;0.33;0.33;;;;;;;;5095862;27;45461;-80
2022/10/24 14:06:02;;;;;;;;;4.33;0.00;;;;;;;;5087370;27;45245;-79
2022/10/24 14:08:27;;;;;;;;;0.00;0.00;;;;;;;;5078094;27;45383;-79
2022/10/24 14:10:53;;;;;;;;;1.00;0.33;;;;;;;;5080804;27;45339;-79
2022/10/24 14:13:20;;;;;;;;;6.00;1.00;;;;;;;;5092079;27;45357;-80
2022/10/24 14:15:49;;;;;;;;;2.00;1.00;;;;;;;;5069097;27;45334;-80
2022/10/24 14:18:15;;;;;;;;;2.00;0.00;;;;;;;;5090894;27;45322;-80
2022/10/24 14:20:41;;;;;;;;;0.00;0.00;;;;;;;;5060905;28;46301;-80
2022/10/24 14:23:27;;;;;;;;;1.50;0.50;;;;;;;;5091463;27;46296;-80
2022/10/24 14:25:54;;;;;;;;;0.00;0.00;;;;;;;;5078587;28;45232;-80
2022/10/24 14:28:23;;;;;;;;;0.00;0.00;;;;;;;;5076886;27;45209;-80
2022/10/24 14:30:55;;;;;;;;;0.00;0.00;;;;;;;;5086224;27;46006;-80
2022/10/24 14:33:22;;;;;;;;;0.50;0.50;;;;;;;;5089212;27;46256;-80
2022/10/24 14:35:48;;;;;;;;;0.75;0.75;;;;;;;;5092428;27;45482;-80
2022/10/24 14:38:15;;;;;;;;;1.25;0.50;;;;;;;;5073067;28;45380;-80
2022/10/24 14:40:41;;;;;;;;;3.50;1.00;;;;;;;;5086198;27;45455;-80
2022/10/24 14:43:11;;;;;;;;;1.25;0.75;;;;;;;;5087466;27;45604;-80
2022/10/24 14:45:36;;;;;;;;;1.25;0.00;;;;;;;;5088259;27;45341;-80
2022/10/24 14:48:12;;;;;;;;;4.00;1.00;;;;;;;;5089716;27;47356;-80
2022/10/24 14:50:41;;;;;;;;;2.75;0.50;;;;;;;;5097047;27;45310;-80